Time;durP1;ratioP1;P1;durP2;ratioP2;P2;SDS_P1;SDS_P2;PMS_P1;PMS_P2;Temp;Humidity;BMP_temperature;BMP_pressure;BME280_temperature;BME280_humidity;BME280_pressure;Samples;Min_cycle;Max_cycle;Signal;HPM_P1;HPM_P2
2022/04/29 00:01:21;;;;;;;5.80;2.00;;;7.50;99.90;;;;;;5076176;28;20134;-74
2022/04/29 00:03:47;;;;;;;6.38;2.30;;;7.70;99.90;;;;;;5059734;28;20052;-74
2022/04/29 00:06:14;;;;;;;6.70;2.08;;;7.40;99.90;;;;;;5076054;28;20055;-73
2022/04/29 00:08:40;;;;;;;6.18;1.90;;;7.40;99.90;;;;;;5094004;28;20036;-73
2022/04/29 00:11:06;;;;;;;7.95;2.03;;;7.50;99.90;;;;;;5093859;28;20044;-73
2022/04/29 00:13:33;;;;;;;6.20;2.08;;;7.50;99.90;;;;;;5093966;28;20099;-74
2022/04/29 00:15:59;;;;;;;7.47;2.30;;;7.40;99.90;;;;;;5075918;28;20048;-74
2022/04/29 00:18:25;;;;;;;7.03;2.40;;;7.40;99.90;;;;;;5094346;28;20040;-74
2022/04/29 00:20:51;;;;;;;6.50;2.15;;;7.70;99.90;;;;;;5060146;28;20121;-73
2022/04/29 00:23:18;;;;;;;6.43;2.47;;;7.70;99.90;;;;;;5075689;28;20101;-73
2022/04/29 00:25:44;;;;;;;6.43;2.10;;;7.50;99.90;;;;;;5075760;28;20044;-74
2022/04/29 00:28:10;;;;;;;6.10;2.30;;;7.40;99.90;;;;;;5076306;28;20127;-73
2022/04/29 00:30:36;;;;;;;5.70;2.13;;;8.00;99.90;;;;;;5075871;28;20509;-73
2022/04/29 00:33:02;;;;;;;7.15;2.25;;;7.60;99.90;;;;;;5094549;28;20373;-74
2022/04/29 00:35:28;;;;;;;7.63;2.28;;;7.40;99.90;;;;;;5093452;28;20380;-73
2022/04/29 00:37:55;;;;;;;7.50;2.45;;;7.50;99.90;;;;;;5093602;28;20204;-74
2022/04/29 00:40:26;;;;;;;6.75;2.40;;;8.20;99.90;;;;;;5093480;28;20399;-74
2022/04/29 00:42:52;;;;;;;5.18;2.67;;;7.20;99.90;;;;;;5093583;28;20048;-73
2022/04/29 00:45:20;;;;;;;9.68;2.90;;;7.30;99.90;;;;;;5075991;28;20048;-74
2022/04/29 00:47:47;;;;;;;7.88;2.80;;;7.30;99.90;;;;;;5093625;28;20428;-74
2022/04/29 00:50:15;;;;;;;4.43;2.00;;;7.40;99.90;;;;;;5093542;28;20048;-74
2022/04/29 00:52:45;;;;;;;4.93;2.35;;;7.10;99.90;;;;;;5094017;28;20174;-74
2022/04/29 00:55:12;;;;;;;10.02;2.38;;;7.60;99.90;;;;;;5075555;28;20092;-74
2022/04/29 00:57:54;;;;;;;4.82;2.40;;;7.30;99.90;;;;;;5097131;28;20044;-74
2022/04/29 01:00:22;;;;;;;4.63;2.47;;;7.30;99.90;;;;;;5079680;28;20044;-74
2022/04/29 01:02:53;;;;;;;6.55;2.42;;;8.10;99.90;;;;;;5079456;28;20048;-74
2022/04/29 01:05:25;;;;;;;4.72;2.53;;;7.30;99.90;;;;;;5097531;28;20047;-73
2022/04/29 01:07:51;;;;;;;7.25;2.15;;;7.30;99.90;;;;;;5079550;28;20036;-72
2022/04/29 01:10:20;;;;;;;4.82;2.50;;;7.20;99.90;;;;;;5097342;28;20097;-73
2022/04/29 01:12:58;;;;;;;5.20;2.35;;;7.10;99.90;;;;;;5097022;28;20535;-73
2022/04/29 01:15:25;;;;;;;6.60;2.95;;;7.60;99.90;;;;;;5097615;28;20392;-73
2022/04/29 01:17:54;;;;;;;6.07;2.45;;;7.00;99.90;;;;;;5097190;28;20083;-73
2022/04/29 01:20:24;;;;;;;5.13;2.15;;;7.20;99.90;;;;;;5097173;28;20051;-74
2022/04/29 01:22:49;;;;;;;5.32;3.25;;;8.10;99.90;;;;;;5079492;28;20044;-74
2022/04/29 01:25:15;;;;;;;7.50;2.78;;;7.80;99.90;;;;;;5097138;28;20055;-73
2022/04/29 01:27:41;;;;;;;6.57;2.55;;;7.10;99.90;;;;;;5079086;28;20036;-73
2022/04/29 01:30:12;;;;;;;5.30;2.80;;;7.40;99.90;;;;;;5097042;28;20036;-73
2022/04/29 01:32:39;;;;;;;8.82;2.97;;;7.10;99.90;;;;;;5097283;28;20055;-73
2022/04/29 01:35:07;;;;;;;8.35;2.65;;;7.10;99.90;;;;;;5078273;28;20399;-74
2022/04/29 01:37:33;;;;;;;6.00;2.40;;;7.10;99.90;;;;;;5077619;28;20088;-73
2022/04/29 01:39:59;;;;;;;6.68;2.90;;;7.10;99.90;;;;;;5078173;28;20087;-73
2022/04/29 01:42:25;;;;;;;6.60;2.67;;;7.50;99.90;;;;;;5095201;28;20496;-72
2022/04/29 01:44:51;;;;;;;5.93;2.72;;;7.10;99.90;;;;;;5078391;28;20127;-74
2022/04/29 01:47:17;;;;;;;6.55;2.85;;;7.10;99.90;;;;;;5095436;28;20393;-73
2022/04/29 01:49:42;;;;;;;7.35;2.58;;;7.30;99.90;;;;;;5096000;28;20048;-74
2022/04/29 01:52:11;;;;;;;6.75;2.70;;;7.00;99.90;;;;;;5077366;28;20047;-74
2022/04/29 01:54:37;;;;;;;5.30;3.08;;;7.00;99.90;;;;;;5078290;28;20105;-74
2022/04/29 01:57:04;;;;;;;7.85;3.17;;;7.00;99.90;;;;;;5095314;28;20051;-74
2022/04/29 01:59:30;;;;;;;6.32;2.80;;;6.90;99.90;;;;;;5076933;28;20047;-74
2022/04/29 02:01:59;;;;;;;8.27;3.38;;;7.40;99.90;;;;;;5077805;28;20039;-74
2022/04/29 02:04:26;;;;;;;8.60;3.15;;;6.90;99.90;;;;;;5094919;28;20477;-74
2022/04/29 02:06:52;;;;;;;5.82;2.50;;;7.00;99.90;;;;;;5094839;28;20062;-74
2022/04/29 02:09:18;;;;;;;6.35;2.90;;;6.90;99.90;;;;;;5095132;28;20044;-74
2022/04/29 02:12:03;;;;;;;6.45;2.95;;;7.00;99.90;;;;;;5095171;28;20119;-74
2022/04/29 02:14:30;;;;;;;6.43;2.55;;;6.60;99.90;;;;;;5077257;28;20567;-73
2022/04/29 02:16:56;;;;;;;5.93;3.30;;;7.40;99.90;;;;;;5076932;28;20048;-74
2022/04/29 02:19:24;;;;;;;7.20;3.33;;;6.80;99.90;;;;;;5076894;28;20044;-74
2022/04/29 02:21:49;;;;;;;5.72;2.80;;;6.70;99.90;;;;;;5077099;28;20048;-74
2022/04/29 02:24:15;;;;;;;6.75;3.10;;;7.00;99.90;;;;;;5076967;28;20438;-74
2022/04/29 02:26:41;;;;;;;7.28;3.40;;;6.90;99.90;;;;;;5094806;28;20051;-73
2022/04/29 02:29:09;;;;;;;8.65;3.67;;;6.90;99.90;;;;;;5077838;28;20380;-74
2022/04/29 02:31:35;;;;;;;5.50;2.90;;;7.00;99.90;;;;;;5095615;28;20455;-74
2022/04/29 02:34:01;;;;;;;8.38;3.05;;;6.80;99.90;;;;;;5095074;28;20063;-73
2022/04/29 02:36:28;;;;;;;6.82;2.90;;;7.00;99.90;;;;;;5057081;28;1104563;-74
2022/04/29 02:38:53;;;;;;;5.55;3.17;;;6.80;99.90;;;;;;5095721;28;20044;-75
2022/04/29 02:41:19;;;;;;;5.45;3.03;;;7.00;99.90;;;;;;5095892;28;20054;-73
2022/04/29 02:43:45;;;;;;;10.27;3.22;;;6.80;99.90;;;;;;5095645;28;20089;-74
2022/04/29 02:46:11;;;;;;;10.95;2.97;;;6.70;99.90;;;;;;5078485;28;20043;-74
2022/04/29 02:48:37;;;;;;;7.28;3.45;;;6.70;99.90;;;;;;5077539;28;20123;-73
2022/04/29 02:51:04;;;;;;;6.32;3.05;;;6.70;99.90;;;;;;5095536;28;20087;-74
2022/04/29 02:53:33;;;;;;;8.30;3.33;;;7.60;99.90;;;;;;5077646;28;20058;-74
2022/04/29 02:55:59;;;;;;;6.65;2.95;;;6.50;99.90;;;;;;5077543;28;20048;-74
2022/04/29 02:58:24;;;;;;;5.28;2.78;;;6.70;99.90;;;;;;5095256;28;20047;-74
2022/04/29 03:00:50;;;;;;;8.15;3.20;;;6.40;99.90;;;;;;5095286;28;20048;-74
2022/04/29 03:03:16;;;;;;;7.65;3.10;;;6.70;99.90;;;;;;5095240;28;20097;-75
2022/04/29 03:05:41;;;;;;;6.72;2.75;;;6.80;99.90;;;;;;5077417;28;20048;-74
2022/04/29 03:08:07;;;;;;;6.78;2.95;;;6.80;99.90;;;;;;5076853;28;20036;-74
2022/04/29 03:10:34;;;;;;;6.32;2.92;;;7.20;99.90;;;;;;5094735;28;20044;-74
2022/04/29 03:13:00;;;;;;;8.35;2.97;;;6.70;99.90;;;;;;5095161;28;20139;-74
2022/04/29 03:15:26;;;;;;;5.03;3.03;;;6.70;99.90;;;;;;5077384;28;20036;-73
2022/04/29 03:20:39;;;;;;;7.40;2.90;;;6.90;99.90;;;;;;5077204;28;20055;-74
2022/04/29 03:23:05;;;;;;;6.63;3.00;;;6.80;99.90;;;;;;5077796;28;20134;-74
2022/04/29 03:25:32;;;;;;;5.70;2.88;;;6.80;99.90;;;;;;5095630;28;20047;-73
2022/04/29 03:27:58;;;;;;;6.20;2.92;;;6.40;99.90;;;;;;5076940;28;20377;-74
2022/04/29 03:30:23;;;;;;;5.72;3.00;;;6.60;99.90;;;;;;5094774;28;20097;-73
2022/04/29 03:32:53;;;;;;;9.35;2.88;;;6.70;99.90;;;;;;5095517;28;20127;-74
2022/04/29 03:35:19;;;;;;;5.97;2.95;;;7.40;99.90;;;;;;5094265;28;20416;-74
2022/04/29 03:37:45;;;;;;;6.97;3.28;;;6.60;99.90;;;;;;5094867;28;20069;-74
2022/04/29 03:40:14;;;;;;;4.32;2.90;;;6.80;99.90;;;;;;5076354;28;20048;-74
2022/04/29 03:42:40;;;;;;;6.38;3.00;;;7.30;99.90;;;;;;5094506;28;20044;-74
2022/04/29 03:45:06;;;;;;;7.70;3.45;;;6.70;99.90;;;;;;5094443;28;20059;-74
2022/04/29 03:47:32;;;;;;;6.10;3.15;;;6.70;99.90;;;;;;5076385;28;20127;-74
2022/04/29 03:49:59;;;;;;;8.85;3.53;;;6.40;99.90;;;;;;5059982;28;20147;-74
2022/04/29 03:52:25;;;;;;;5.90;3.08;;;6.80;99.90;;;;;;5076502;28;20063;-74
2022/04/29 03:54:51;;;;;;;5.93;3.25;;;6.70;99.90;;;;;;5094340;28;20048;-74
2022/04/29 03:57:16;;;;;;;6.50;3.67;;;6.60;99.90;;;;;;5076445;28;20048;-74
2022/04/29 03:59:42;;;;;;;6.25;3.28;;;6.80;99.90;;;;;;5076926;28;20429;-73
2022/04/29 04:02:08;;;;;;;7.03;3.20;;;6.60;99.90;;;;;;5094189;28;20040;-73
2022/04/29 04:04:33;;;;;;;7.20;3.42;;;6.40;99.90;;;;;;5094119;28;20043;-74
2022/04/29 04:07:02;;;;;;;8.23;3.35;;;6.60;99.90;;;;;;5094155;28;20055;-73
2022/04/29 04:09:28;;;;;;;8.07;3.38;;;6.60;99.90;;;;;;5060274;28;20075;-73
2022/04/29 04:11:54;;;;;;;7.03;3.15;;;6.70;99.90;;;;;;5093933;28;20510;-73
2022/04/29 04:14:19;;;;;;;8.30;3.38;;;6.50;99.90;;;;;;5076186;28;20039;-73
2022/04/29 04:16:46;;;;;;;5.55;3.38;;;7.00;99.90;;;;;;5059395;28;20052;-74
2022/04/29 04:19:11;;;;;;;6.47;3.08;;;6.60;99.90;;;;;;5093834;28;20036;-73
2022/04/29 04:21:37;;;;;;;9.05;3.38;;;7.20;99.90;;;;;;5093882;28;20093;-74
2022/04/29 04:24:03;;;;;;;10.45;3.55;;;6.70;99.90;;;;;;5093512;28;20480;-74
2022/04/29 04:26:29;;;;;;;6.22;3.38;;;6.60;99.90;;;;;;5075475;28;20059;-73
2022/04/29 04:28:56;;;;;;;6.68;2.97;;;7.20;99.90;;;;;;5093828;28;20036;-74
2022/04/29 04:31:21;;;;;;;10.80;3.55;;;6.50;99.90;;;;;;5093640;28;20055;-74
2022/04/29 04:33:53;;;;;;;6.47;3.20;;;6.70;99.90;;;;;;5075787;28;20040;-73
2022/04/29 04:36:19;;;;;;;5.00;2.95;;;6.80;99.90;;;;;;5093710;28;20503;-74
2022/04/29 04:38:47;;;;;;;5.47;3.10;;;6.90;99.90;;;;;;5093632;28;20040;-73
2022/04/29 04:41:15;;;;;;;5.10;2.85;;;7.10;99.90;;;;;;5075773;28;20093;-74
2022/04/29 04:43:42;;;;;;;5.38;3.30;;;6.70;99.90;;;;;;5059600;28;20047;-73
2022/04/29 04:46:08;;;;;;;5.97;2.80;;;7.60;99.90;;;;;;5093874;28;20132;-73
2022/04/29 04:48:34;;;;;;;7.35;3.55;;;6.80;99.90;;;;;;5093660;28;20496;-74
2022/04/29 04:51:03;;;;;;;5.13;2.60;;;7.10;99.90;;;;;;5093546;28;20192;-74
2022/04/29 04:53:29;;;;;;;8.75;2.88;;;6.70;99.90;;;;;;5076050;28;20054;-74
2022/04/29 04:55:55;;;;;;;6.25;3.22;;;6.90;99.90;;;;;;5093525;28;20036;-74
2022/04/29 04:58:21;;;;;;;5.32;2.53;;;7.00;99.90;;;;;;5093361;28;20516;-74
2022/04/29 05:00:47;;;;;;;4.30;2.70;;;7.20;99.90;;;;;;5093438;28;20071;-75
2022/04/29 05:03:12;;;;;;;6.07;2.80;;;7.00;99.90;;;;;;5093105;28;20047;-74
2022/04/29 05:05:39;;;;;;;6.28;3.08;;;7.10;99.90;;;;;;5093126;28;20055;-73
2022/04/29 05:08:05;;;;;;;6.38;3.33;;;7.30;99.90;;;;;;5093344;28;20496;-74
2022/04/29 05:10:30;;;;;;;4.85;2.40;;;7.10;99.90;;;;;;5093520;28;20051;-74
2022/04/29 05:12:56;;;;;;;7.15;2.50;;;7.90;99.90;;;;;;5075578;28;20441;-74
2022/04/29 05:15:22;;;;;;;7.70;2.80;;;7.20;99.90;;;;;;5093275;28;20044;-74
2022/04/29 05:17:48;;;;;;;5.63;2.80;;;7.50;99.90;;;;;;5076273;28;20182;-73
2022/04/29 05:20:15;;;;;;;6.75;2.65;;;7.30;99.90;;;;;;5093775;28;20044;-74
2022/04/29 05:22:42;;;;;;;7.03;3.13;;;7.70;99.90;;;;;;5075359;28;20131;-73
2022/04/29 05:25:08;;;;;;;5.50;2.67;;;7.60;99.90;;;;;;5094077;28;20075;-74
2022/04/29 05:27:34;;;;;;;5.82;3.05;;;7.50;99.90;;;;;;5058679;28;20451;-73
2022/04/29 05:30:00;;;;;;;5.07;2.65;;;7.50;99.90;;;;;;5075010;28;20079;-74
2022/04/29 05:32:26;;;;;;;5.38;3.10;;;7.50;99.90;;;;;;5093699;28;20080;-74
2022/04/29 05:34:52;;;;;;;3.92;2.13;;;7.70;99.90;;;;;;5092879;28;20067;-73
2022/04/29 05:37:18;;;;;;;3.50;2.50;;;8.40;99.90;;;;;;5075768;28;20446;-73
2022/04/29 05:42:29;;;;;;;4.35;2.03;;;7.80;99.90;;;;;;5094451;28;20044;-74
2022/04/29 05:44:55;;;;;;;6.00;3.08;;;8.20;99.90;;;;;;5079736;28;20052;-73
2022/04/29 05:47:21;;;;;;;6.57;2.85;;;8.00;99.90;;;;;;5078852;28;20113;-74
2022/04/29 05:49:46;;;;;;;8.05;2.63;;;8.10;99.90;;;;;;5097298;28;20039;-73
2022/04/29 05:52:12;;;;;;;4.50;2.53;;;7.90;99.90;;;;;;5096689;28;20101;-74
2022/04/29 05:54:38;;;;;;;5.97;2.60;;;8.30;99.90;;;;;;5079499;28;20050;-73
2022/04/29 05:57:04;;;;;;;5.55;2.22;;;8.40;99.90;;;;;;5096569;28;20433;-74
2022/04/29 05:59:31;;;;;;;4.13;2.25;;;8.40;99.90;;;;;;5078636;28;20467;-74
2022/04/29 06:01:57;;;;;;;3.58;1.70;;;8.40;99.90;;;;;;5096530;28;20101;-74
2022/04/29 06:04:23;;;;;;;5.70;1.92;;;8.50;99.90;;;;;;5078884;28;20058;-74
2022/04/29 06:06:48;;;;;;;4.93;2.17;;;8.40;99.90;;;;;;5096376;28;20539;-74
2022/04/29 06:09:14;;;;;;;4.20;2.15;;;8.50;99.90;;;;;;5078530;28;20048;-73
2022/04/29 06:11:40;;;;;;;7.05;2.45;;;8.50;99.90;;;;;;5078720;28;20051;-74
2022/04/29 06:14:06;;;;;;;6.38;2.22;;;8.50;99.90;;;;;;5096270;28;20090;-74
2022/04/29 06:16:33;;;;;;;3.47;1.75;;;8.50;99.90;;;;;;5096512;28;20058;-74
2022/04/29 06:18:59;;;;;;;3.92;2.13;;;8.50;99.90;;;;;;5096133;28;20040;-74
2022/04/29 06:21:25;;;;;;;3.10;1.58;;;8.50;99.90;;;;;;5077949;28;20051;-74
2022/04/29 06:23:51;;;;;;;4.80;2.05;;;8.50;99.90;;;;;;5096028;28;20044;-73
2022/04/29 06:26:16;;;;;;;3.95;1.60;;;8.50;99.90;;;;;;5096045;28;20044;-74
2022/04/29 06:28:42;;;;;;;3.38;1.85;;;8.60;99.90;;;;;;5096013;28;20052;-73
2022/04/29 06:31:08;;;;;;;4.50;1.60;;;8.70;99.90;;;;;;5078016;28;20472;-73
2022/04/29 06:33:35;;;;;;;5.05;1.90;;;8.60;99.90;;;;;;5095962;28;20046;-73
2022/04/29 06:36:01;;;;;;;2.75;1.90;;;8.50;99.90;;;;;;5096219;28;20052;-74
2022/04/29 06:38:27;;;;;;;3.72;1.80;;;8.60;99.90;;;;;;5095998;28;20124;-74
2022/04/29 06:40:55;;;;;;;4.85;1.55;;;8.60;99.90;;;;;;5095705;28;20044;-74
2022/04/29 06:43:22;;;;;;;3.22;1.30;;;8.60;99.90;;;;;;5095707;28;20109;-74
2022/04/29 06:45:48;;;;;;;2.70;1.52;;;8.60;99.90;;;;;;5077871;28;20442;-74
2022/04/29 06:48:14;;;;;;;3.15;1.70;;;8.80;99.90;;;;;;5095650;28;20118;-74
2022/04/29 06:50:41;;;;;;;3.58;1.40;;;8.60;99.90;;;;;;5096373;28;20447;-73
2022/04/29 06:53:07;;;;;;;4.93;1.40;;;8.90;99.90;;;;;;5095178;28;20130;-73
2022/04/29 06:55:36;;;;;;;2.35;1.10;;;9.20;99.90;;;;;;5094639;28;20083;-73
2022/04/29 06:58:02;;;;;;;7.13;2.00;;;9.00;99.90;;;;;;5077160;28;20044;-74
2022/04/29 07:00:28;;;;;;;3.95;1.60;;;8.80;99.90;;;;;;5078228;28;20044;-74
2022/04/29 07:02:56;;;;;;;3.72;1.58;;;8.80;99.90;;;;;;5095624;28;20125;-74
2022/04/29 07:05:23;;;;;;;3.40;1.60;;;8.80;99.90;;;;;;5077434;28;20048;-73
2022/04/29 07:07:50;;;;;;;3.33;2.10;;;9.10;99.90;;;;;;5077050;28;20453;-73
2022/04/29 07:10:16;;;;;;;7.13;2.83;;;8.80;99.90;;;;;;5095591;28;20059;-74
2022/04/29 07:12:44;;;;;;;2.63;1.73;;;8.80;99.90;;;;;;5095389;28;20067;-74
2022/04/29 07:15:14;;;;;;;4.18;1.55;;;9.00;99.90;;;;;;5095313;28;20052;-74
2022/04/29 07:17:41;;;;;;;3.38;1.70;;;8.90;99.90;;;;;;5095665;28;20040;-73
2022/04/29 07:20:07;;;;;;;3.63;1.80;;;8.90;99.90;;;;;;5095054;28;20155;-73
2022/04/29 07:22:33;;;;;;;4.05;1.75;;;8.90;99.90;;;;;;5077706;28;20384;-73
2022/04/29 07:24:59;;;;;;;4.25;1.65;;;8.90;99.90;;;;;;5078063;28;20457;-74
2022/04/29 07:27:28;;;;;;;5.15;2.13;;;8.90;99.90;;;;;;5077947;28;20091;-73
2022/04/29 07:29:54;;;;;;;3.15;1.13;;;8.90;99.90;;;;;;5060490;28;20052;-73
2022/04/29 07:32:20;;;;;;;1.77;1.40;;;8.90;99.90;;;;;;5094911;28;20117;-73
2022/04/29 07:42:59;;;;;;;4.40;1.23;;;9.00;99.90;;;;;;5094718;28;20102;-74
2022/04/29 07:45:24;;;;;;;3.53;1.15;;;9.40;99.90;;;;;;5077204;28;20056;-73
2022/04/29 07:47:51;;;;;;;4.55;1.40;;;9.00;99.90;;;;;;5095199;28;20464;-73
2022/04/29 07:50:16;;;;;;;2.95;1.10;;;9.00;99.90;;;;;;5060059;28;20129;-76
2022/04/29 07:52:42;;;;;;;3.42;1.20;;;9.00;99.90;;;;;;5060231;28;20424;-74
2022/04/29 07:55:08;;;;;;;3.17;1.20;;;9.00;99.90;;;;;;5076739;28;20625;-74
2022/04/29 07:57:34;;;;;;;2.20;1.20;;;9.10;99.90;;;;;;5095236;28;20071;-74
2022/04/29 07:59:59;;;;;;;2.92;1.10;;;9.20;99.90;;;;;;5076217;28;20044;-74
2022/04/29 08:02:25;;;;;;;3.75;1.23;;;9.20;99.90;;;;;;5059550;28;20052;-72
2022/04/29 08:04:51;;;;;;;2.67;1.40;;;9.20;99.90;;;;;;5093636;28;20054;-73
2022/04/29 08:07:16;;;;;;;2.92;1.90;;;9.80;99.90;;;;;;5076767;28;20051;-72
2022/04/29 08:09:42;;;;;;;2.25;1.38;;;9.30;99.90;;;;;;5094154;28;20430;-74
2022/04/29 08:12:10;;;;;;;4.03;1.58;;;9.40;99.90;;;;;;5076504;28;20048;-74
2022/04/29 08:14:35;;;;;;;4.28;1.45;;;9.50;99.90;;;;;;5076610;28;20044;-73
2022/04/29 08:17:01;;;;;;;2.28;1.70;;;9.60;99.90;;;;;;5076003;28;20040;-74
2022/04/29 08:19:27;;;;;;;4.93;1.65;;;9.60;99.90;;;;;;5076057;28;20144;-74
2022/04/29 08:21:53;;;;;;;3.00;1.38;;;9.70;99.90;;;;;;5093998;28;20036;-75
2022/04/29 08:24:18;;;;;;;16.92;2.78;;;9.80;99.90;;;;;;5094050;28;20048;-74
2022/04/29 08:26:44;;;;;;;5.35;1.95;;;9.90;99.90;;;;;;5093912;28;20054;-74
2022/04/29 08:29:10;;;;;;;3.58;1.92;;;9.90;99.90;;;;;;5094209;28;20051;-74
2022/04/29 08:31:36;;;;;;;15.68;3.08;;;10.00;99.90;;;;;;5075784;28;20117;-73
2022/04/29 08:34:04;;;;;;;5.35;1.60;;;10.00;99.90;;;;;;5043749;28;20052;-74
2022/04/29 08:36:30;;;;;;;3.72;1.45;;;10.00;99.90;;;;;;5075531;28;20096;-75
2022/04/29 08:38:56;;;;;;;52.85;7.38;;;10.00;99.90;;;;;;5075858;28;20123;-74
2022/04/29 08:41:22;;;;;;;4.22;1.70;;;10.10;99.90;;;;;;5094285;28;20048;-76
2022/04/29 08:43:49;;;;;;;4.38;0.85;;;10.10;99.90;;;;;;5058960;28;20446;-75
2022/04/29 08:46:15;;;;;;;2.13;0.82;;;10.20;99.90;;;;;;5092786;28;20116;-73
2022/04/29 08:48:43;;;;;;;5.45;1.50;;;10.30;99.90;;;;;;5092800;28;20044;-74
2022/04/29 08:51:09;;;;;;;3.95;1.30;;;10.30;99.90;;;;;;5092882;28;20440;-73
2022/04/29 08:53:37;;;;;;;2.80;1.30;;;10.40;99.90;;;;;;5092680;28;20095;-74
2022/04/29 08:58:50;;;;;;;9.15;1.52;;;10.50;99.90;;;;;;5092772;28;20044;-74
2022/04/29 09:01:20;;;;;;;6.65;1.60;;;10.50;99.90;;;;;;5075870;28;20048;-74
2022/04/29 09:03:46;;;;;;;3.80;1.42;;;10.40;99.90;;;;;;5074976;28;20051;-74
2022/04/29 09:06:17;;;;;;;1.52;1.38;;;11.20;99.90;;;;;;5075333;28;20047;-74
2022/04/29 09:08:45;;;;;;;7.03;1.38;;;10.40;99.90;;;;;;5074834;28;20128;-74
2022/04/29 09:11:21;;;;;;;3.78;1.65;;;10.30;99.90;;;;;;5093021;28;20460;-74
2022/04/29 09:13:47;;;;;;;3.17;1.27;;;10.40;99.90;;;;;;5092106;28;20551;-73
2022/04/29 09:16:14;;;;;;;3.05;1.65;;;10.60;99.90;;;;;;5092900;28;20093;-74
2022/04/29 09:18:41;;;;;;;5.55;1.38;;;10.50;99.90;;;;;;5077945;28;20044;-73
2022/04/29 09:21:16;;;;;;;4.10;1.92;;;11.30;99.90;;;;;;5096494;28;20052;-74
2022/04/29 09:23:44;;;;;;;3.47;1.52;;;10.40;99.90;;;;;;5078743;28;20364;-74
2022/04/29 09:26:30;;;;;;;3.10;1.58;;;10.50;99.90;;;;;;5096333;28;20112;-74
2022/04/29 09:29:12;;;;;;;3.38;1.38;;;10.50;99.90;;;;;;5078660;28;20058;-74
2022/04/29 09:31:58;;;;;;;3.28;1.63;;;10.50;99.90;;;;;;5079147;28;20071;-73
2022/04/29 09:34:43;;;;;;;3.85;1.80;;;10.50;99.90;;;;;;5078080;28;20093;-73
2022/04/29 09:37:20;;;;;;;3.83;1.30;;;10.60;99.90;;;;;;5079455;28;20056;-73
2022/04/29 09:40:02;;;;;;;5.22;1.90;;;10.60;99.90;;;;;;5078413;28;20044;-73
2022/04/29 09:42:43;;;;;;;4.18;1.55;;;10.60;99.90;;;;;;5078430;28;20135;-73
2022/04/29 09:45:24;;;;;;;2.25;1.30;;;10.60;99.90;;;;;;5096379;28;20050;-74
2022/04/29 09:47:54;;;;;;;2.95;1.42;;;10.60;99.90;;;;;;5095635;28;20077;-73
2022/04/29 09:50:19;;;;;;;3.10;1.40;;;10.70;99.90;;;;;;5061721;28;20051;-73
2022/04/29 09:52:45;;;;;;;4.20;1.33;;;10.70;99.90;;;;;;5095929;28;20084;-74
2022/04/29 09:55:18;;;;;;;3.10;1.70;;;10.70;99.90;;;;;;5078018;28;20135;-75
2022/04/29 09:57:52;;;;;;;4.50;1.83;;;10.70;99.90;;;;;;5077616;28;20523;-72
2022/04/29 10:00:18;;;;;;;1.80;1.70;;;10.70;99.90;;;;;;5096135;28;20080;-73
2022/04/29 10:02:46;;;;;;;3.03;1.70;;;10.70;99.90;;;;;;5077725;28;20048;-73
2022/04/29 10:05:12;;;;;;;4.35;1.77;;;10.70;99.90;;;;;;5077708;28;20131;-73
2022/04/29 10:07:40;;;;;;;2.92;1.50;;;10.70;99.90;;;;;;5077653;28;20127;-73
2022/04/29 10:10:08;;;;;;;3.35;1.50;;;10.70;99.90;;;;;;5095538;28;20123;-77
2022/04/29 10:12:35;;;;;;;6.22;1.80;;;10.80;99.90;;;;;;5077969;28;20059;-73
2022/04/29 10:15:06;;;;;;;4.43;2.50;;;10.80;99.90;;;;;;5095913;28;20048;-74
2022/04/29 10:23:07;;;;;;;4.75;3.15;;;10.80;99.90;;;;;;5096278;28;20070;-74
2022/04/29 10:25:34;;;;;;;3.05;2.13;;;10.80;99.90;;;;;;5060315;28;20040;-77
2022/04/29 10:28:01;;;;;;;3.60;2.58;;;10.80;99.90;;;;;;5076845;28;20484;-74
2022/04/29 10:30:27;;;;;;;5.45;2.85;;;10.80;99.90;;;;;;5095238;28;20097;-74
2022/04/29 10:33:09;;;;;;;4.15;2.78;;;10.80;99.90;;;;;;5077486;28;20040;-74
2022/04/29 10:35:49;;;;;;;3.30;2.22;;;10.80;99.90;;;;;;5073826;28;20044;-74
2022/04/29 10:38:19;;;;;;;3.15;2.17;;;10.90;99.90;;;;;;5075186;28;20465;-74
2022/04/29 10:40:49;;;;;;;3.85;1.95;;;11.00;99.90;;;;;;5075597;28;20086;-74
2022/04/29 10:43:18;;;;;;;3.85;2.05;;;11.00;99.90;;;;;;5073922;28;20052;-75
2022/04/29 10:46:05;;;;;;;2.63;2.03;;;10.90;99.90;;;;;;5075088;28;20048;-76
2022/04/29 10:48:32;;;;;;;4.97;2.35;;;10.90;99.90;;;;;;5074860;28;20036;-74
2022/04/29 10:51:26;;;;;;;4.13;2.85;;;11.00;99.90;;;;;;5075110;28;20080;-74
2022/04/29 10:53:57;;;;;;;4.68;2.58;;;11.00;99.90;;;;;;5075025;28;20392;-74
2022/04/29 10:56:28;;;;;;;2.78;2.53;;;10.90;99.90;;;;;;5075366;28;20128;-75
2022/04/29 10:59:04;;;;;;;3.80;2.13;;;10.90;99.90;;;;;;5075112;28;20040;-75
2022/04/29 11:01:33;;;;;;;5.20;2.13;;;10.80;99.90;;;;;;5075147;28;20041;-73
2022/04/29 11:04:06;;;;;;;5.28;3.08;;;10.70;99.90;;;;;;5074474;28;20044;-74
2022/04/29 11:06:40;;;;;;;4.07;3.03;;;10.70;99.90;;;;;;5074732;28;20048;-73
2022/04/29 11:09:24;;;;;;;4.30;2.63;;;10.80;99.90;;;;;;5073938;28;20405;-74
2022/04/29 11:11:51;;;;;;;4.18;2.97;;;10.70;99.90;;;;;;5073080;28;20098;-75
2022/04/29 11:14:17;;;;;;;4.05;2.60;;;10.80;99.90;;;;;;5074330;28;20048;-73
2022/04/29 11:16:53;;;;;;;6.50;2.55;;;10.80;99.90;;;;;;5074281;28;20043;-74
2022/04/29 11:19:21;;;;;;;4.13;2.50;;;10.80;99.90;;;;;;5074142;28;20048;-73
2022/04/29 11:24:46;;;;;;;5.00;2.60;;;10.70;99.90;;;;;;5073820;28;20507;-73
2022/04/29 11:27:12;;;;;;;4.00;2.28;;;10.70;99.90;;;;;;5072932;28;20056;-73
2022/04/29 11:29:47;;;;;;;4.15;2.55;;;10.70;99.90;;;;;;5073930;28;20037;-73
2022/04/29 11:32:13;;;;;;;3.95;2.95;;;10.70;99.90;;;;;;5074764;28;20369;-73
2022/04/29 11:35:00;;;;;;;4.10;3.35;;;10.70;99.90;;;;;;5072976;28;20419;-74
2022/04/29 11:37:33;;;;;;;4.70;3.10;;;10.70;99.90;;;;;;5074695;28;20429;-74
2022/04/29 11:40:09;;;;;;;4.97;2.85;;;10.70;99.90;;;;;;5072804;28;20060;-74
2022/04/29 11:42:36;;;;;;;5.25;2.70;;;10.60;99.90;;;;;;5073757;28;20373;-73
2022/04/29 11:45:09;;;;;;;3.63;2.30;;;10.60;99.90;;;;;;5072585;28;20052;-73
2022/04/29 11:47:36;;;;;;;3.40;3.10;;;10.50;99.90;;;;;;5074129;28;20044;-74
2022/04/29 11:50:07;;;;;;;5.22;2.65;;;11.00;99.90;;;;;;5073162;28;20047;-72
2022/04/29 11:52:36;;;;;;;5.38;2.70;;;10.50;99.90;;;;;;5073428;28;20113;-72
2022/04/29 11:55:05;;;;;;;5.13;2.58;;;10.50;99.90;;;;;;5073662;28;20376;-73
2022/04/29 11:57:42;;;;;;;3.35;2.13;;;10.60;99.90;;;;;;5074037;28;20412;-74
2022/04/29 12:00:09;;;;;;;4.70;2.13;;;10.60;99.90;;;;;;5073196;28;20384;-75
2022/04/29 12:02:35;;;;;;;2.95;1.85;;;10.60;99.90;;;;;;5073179;28;20056;-75
2022/04/29 12:05:06;;;;;;;4.68;2.90;;;10.60;99.90;;;;;;5073995;28;20095;-74
2022/04/29 12:07:46;;;;;;;2.92;2.20;;;10.60;99.90;;;;;;5074733;28;20456;-80
2022/04/29 12:10:17;;;;;;;4.53;2.42;;;10.60;99.90;;;;;;5074056;28;20534;-78
2022/04/29 12:12:44;;;;;;;6.60;2.92;;;10.70;99.90;;;;;;5073098;28;20392;-78
2022/04/29 12:15:10;;;;;;;19.55;3.70;;;10.70;99.90;;;;;;5073021;28;20048;-77
2022/04/29 12:17:38;;;;;;;3.78;2.00;;;10.80;99.90;;;;;;5073943;28;20070;-77
2022/04/29 12:20:06;;;;;;;3.80;1.83;;;10.80;99.90;;;;;;5073786;28;20076;-78
2022/04/29 12:22:36;;;;;;;4.43;2.20;;;10.90;99.90;;;;;;5073223;28;20159;-78
2022/04/29 12:25:20;;;;;;;4.65;2.22;;;10.90;99.90;;;;;;5073795;28;20059;-76
2022/04/29 12:27:46;;;;;;;7.30;2.28;;;11.00;99.90;;;;;;5056077;28;20477;-75
2022/04/29 12:36:13;;;;;;;4.10;1.70;;;11.00;99.90;;;;;;5084270;28;20492;-75
2022/04/29 12:38:42;;;;;;;5.18;1.65;;;11.00;99.90;;;;;;5076365;28;20048;-76
2022/04/29 12:41:15;;;;;;;3.33;1.17;;;10.90;99.90;;;;;;5093697;28;20123;-77
2022/04/29 12:43:42;;;;;;;6.22;1.48;;;10.90;99.90;;;;;;5059353;28;20090;-76
2022/04/29 12:46:18;;;;;;;3.13;1.70;;;10.90;99.90;;;;;;5094293;28;20044;-78
2022/04/29 12:48:49;;;;;;;3.20;1.55;;;10.90;99.90;;;;;;5093526;28;20185;-77
2022/04/29 12:51:34;;;;;;;3.75;1.90;;;10.90;99.90;;;;;;5095399;28;20048;-76
2022/04/29 12:54:05;;;;;;;2.97;1.80;;;10.90;99.90;;;;;;5097966;28;20079;-76
2022/04/29 12:56:32;;;;;;;5.25;1.98;;;10.90;99.90;;;;;;5080332;28;20098;-74
2022/04/29 12:59:00;;;;;;;6.60;1.60;;;11.10;99.90;;;;;;5079746;28;20403;-74
2022/04/29 13:01:35;;;;;;;5.07;1.70;;;11.00;99.90;;;;;;5079808;28;20055;-74
2022/04/29 13:04:00;;;;;;;3.38;1.75;;;11.00;99.90;;;;;;5064115;28;20108;-74
2022/04/29 13:06:26;;;;;;;2.35;1.52;;;11.10;99.90;;;;;;5096762;28;20149;-75
2022/04/29 13:08:57;;;;;;;5.10;1.70;;;11.10;99.90;;;;;;5096935;28;20040;-74
2022/04/29 13:11:23;;;;;;;3.55;1.40;;;11.10;99.90;;;;;;5097091;28;20040;-73
2022/04/29 13:13:51;;;;;;;6.43;2.15;;;11.20;99.90;;;;;;5079510;28;20044;-74
2022/04/29 13:16:18;;;;;;;1.80;1.40;;;11.10;99.90;;;;;;5079670;28;20059;-75
2022/04/29 13:18:44;;;;;;;1.33;1.10;;;11.10;99.90;;;;;;5097415;28;20036;-75
2022/04/29 13:21:10;;;;;;;2.22;1.33;;;11.10;99.90;;;;;;5097443;28;20055;-76
2022/04/29 13:23:38;;;;;;;4.97;1.50;;;11.10;99.70;;;;;;5098257;28;20136;-76
2022/04/29 13:26:04;;;;;;;3.05;2.10;;;11.20;99.80;;;;;;5097370;28;20048;-75
2022/04/29 13:28:31;;;;;;;2.58;1.50;;;11.10;99.60;;;;;;5097377;28;20059;-75